MSC Poesia — 3EPL4 — position and weather

sailwx.info

Track history (hours):
 
Tides and Currents Weather Stations Pressure Air Temp Water Temp Dewpoint Dewpoint Depression Visibility Wind Speed Wind Dir Waves Ship Positions

MSC Poesia

Last reported at 2018-Aug-21 02:14 UTC. Time now 2018-Aug-21 03:57 UTC.
Position N 37°20' E 024°56'.

Length 293 m; draft 7.8 m.

Type: Ship. MMSI: 355931000.

Date/timePositionNaut miles runAvg speedWind from/ knotsBaromVisibWave heightAir tempDewpointWater temp
2018-Aug-21 02:14N 37°20' E 024°56'  
2018-Aug-18 21:05N 44°14' E 013°54'320.6
2018-Aug-18 20:57N 44°16' E 013°52'1320.4
2018-Aug-18 20:18N 44°27' E 013°42'620.4
2018-Aug-18 20:00N 44°33' E 013°38'1020.4
2018-Aug-18 19:30N 44°41' E 013°30'1020.3
2018-Aug-18 19:00N 44°50' E 013°23'1020.4
2018-Aug-18 18:30N 44°58' E 013°14'1020.3
2018-Aug-18 18:00N 45°04' E 013°02'1020.0
2018-Aug-18 17:30N 45°10' E 012°51'1020.0
2018-Aug-18 17:00N 45°17' E 012°41'1019.3
2018-Aug-18 16:30N 45°23' E 012°30'510.4
2018-Aug-18 16:00N 45°26' E 012°24'3 5.1
2018-Aug-18 15:30N 45°26' E 012°20'1 2.5
2018-Aug-18 14:59N 45°26' E 012°19'0 0.0
2018-Aug-18 14:29N 45°26' E 012°19'0 0.0
2018-Aug-18 14:00N 45°26' E 012°19'0 0.0
2018-Aug-18 13:28N 45°26' E 012°19'0 0.0
2018-Aug-18 12:58N 45°26' E 012°19'0 0.0
2018-Aug-18 12:28N 45°26' E 012°19'0 0.0
2018-Aug-18 11:58N 45°26' E 012°19'0 0.0
2018-Aug-18 11:25N 45°26' E 012°19'0 0.0
2018-Aug-18 10:55N 45°26' E 012°19'0 0.0
2018-Aug-18 10:28N 45°26' E 012°19'0 0.0
2018-Aug-18 09:58N 45°26' E 012°19'0 0.0
2018-Aug-18 09:28N 45°26' E 012°19'0 0.0
2018-Aug-18 09:00N 45°26' E 012°19'0 0.0
2018-Aug-18 08:30N 45°26' E 012°19'0 0.0
2018-Aug-18 08:00N 45°26' E 012°19'0 0.0
2018-Aug-18 07:30N 45°26' E 012°19'0 0.0
2018-Aug-18 07:00N 45°26' E 012°19'0 0.0
2018-Aug-18 06:29N 45°26' E 012°19'1 2.2
2018-Aug-18 06:00N 45°26' E 012°20'2 4.8
2018-Aug-18 05:30N 45°26' E 012°23'4 8.3
2018-Aug-18 05:00N 45°24' E 012°28'815.9
2018-Aug-18 04:31N 45°20' E 012°38'918.5
2018-Aug-18 04:00N 45°15' E 012°49'918.8
2018-Aug-18 03:31N 45°08' E 012°58'918.3
2018-Aug-18 03:00N 45°02' E 013°08'918.4
2018-Aug-18 02:30N 44°58' E 013°19'918.4
2018-Aug-18 02:00N 44°51' E 013°28'918.9
2018-Aug-18 01:30N 44°43' E 013°35'919.0
2018-Aug-18 01:00N 44°35' E 013°42'1018.9
2018-Aug-18 00:30N 44°27' E 013°50'1019.3
2018-Aug-18 00:01N 44°19' E 013°57'1319.3
2018-Aug-17 23:21N 44°08' E 014°07'719.6
2018-Aug-17 23:00N 44°04' E 014°14'2519.6
2018-Aug-17 21:45N 43°47' E 014°39'  
2018-Aug-15 16:17N 37°08' E 023°34'819.8
2018-Aug-15 15:54N 37°16' E 023°36'1219.3
2018-Aug-15 15:18N 37°27' E 023°40'619.9
2018-Aug-15 14:59N 37°33' E 023°41'919.2
2018-Aug-15 14:31N 37°42' E 023°40'1019.8
2018-Aug-15 14:00N 37°52' E 023°36'5 9.3
2018-Aug-15 13:30N 37°56' E 023°37'0 0.1
2018-Aug-15 12:58N 37°56' E 023°37'0 0.0
2018-Aug-15 12:28N 37°56' E 023°37'0 0.0
2018-Aug-15 11:58N 37°56' E 023°37'0 0.0
2018-Aug-15 11:28N 37°56' E 023°37'0 0.0
2018-Aug-15 10:58N 37°56' E 023°37'0 0.0
2018-Aug-15 10:28N 37°56' E 023°37'0 0.0
2018-Aug-15 09:58N 37°56' E 023°37'0 0.0
2018-Aug-15 09:28N 37°56' E 023°37'0 0.0
2018-Aug-15 08:58N 37°56' E 023°37'0 0.0
2018-Aug-15 08:25N 37°56' E 023°37'0 0.0
2018-Aug-15 07:58N 37°56' E 023°37'0 0.0
2018-Aug-15 07:28N 37°56' E 023°37'0 0.0
2018-Aug-15 06:58N 37°56' E 023°37'0 0.0
2018-Aug-15 06:28N 37°56' E 023°37'0 0.0
2018-Aug-15 05:58N 37°56' E 023°37'0 0.0
2018-Aug-15 05:28N 37°56' E 023°37'0 0.0
2018-Aug-15 04:58N 37°56' E 023°37'0 0.0
2018-Aug-15 04:28N 37°56' E 023°37'0 0.0
2018-Aug-15 03:58N 37°56' E 023°37'0 0.1
2018-Aug-15 03:30N 37°56' E 023°37'2 3.0
2018-Aug-15 03:00N 37°55' E 023°36'2 4.7
2018-Aug-15 02:31N 37°53' E 023°38'510.2
2018-Aug-15 02:00N 37°48' E 023°41'510.6
2018-Aug-15 01:30N 37°43' E 023°43'56 8.8
2018-Aug-14 19:10N 37°18' E 024°46'2 9.8
2018-Aug-14 19:00N 37°18' E 024°48'5 9.8
2018-Aug-14 18:30N 37°18' E 024°54'510.1
2018-Aug-14 18:01N 37°19' E 025°00'5 9.1
2018-Aug-14 17:26N 37°21' E 025°06'4 9.7
2018-Aug-14 17:01N 37°25' E 025°08'5 9.5
2018-Aug-14 16:30N 37°28' E 025°13'5 9.4
2018-Aug-14 16:00N 37°28' E 025°19'0 0.0
2018-Aug-14 15:28N 37°28' E 025°19'0 0.0
2018-Aug-14 14:58N 37°28' E 025°19'0 0.0
2018-Aug-14 14:28N 37°28' E 025°19'0 0.0
2018-Aug-14 13:55N 37°28' E 025°19'0 0.0
2018-Aug-14 13:28N 37°28' E 025°19'0 0.0
2018-Aug-14 12:58N 37°28' E 025°19'0 0.0
2018-Aug-14 12:28N 37°28' E 025°19'0 0.0
2018-Aug-14 11:58N 37°28' E 025°19'0 0.0
2018-Aug-14 11:28N 37°28' E 025°19'0 0.0
2018-Aug-14 10:58N 37°28' E 025°19'0 0.0
2018-Aug-14 10:28N 37°28' E 025°19'0 0.0
2018-Aug-14 09:55N 37°28' E 025°19'0 0.0
2018-Aug-14 09:25N 37°28' E 025°19'0 0.0
2018-Aug-14 08:58N 37°28' E 025°19'0 0.0
2018-Aug-14 08:28N 37°28' E 025°19'0 0.0
2018-Aug-14 07:58N 37°28' E 025°19'0 0.0
2018-Aug-14 07:28N 37°28' E 025°19'0 0.0
2018-Aug-14 06:58N 37°28' E 025°19'0 0.0
2018-Aug-14 06:28N 37°28' E 025°19'0 0.0
2018-Aug-14 05:58N 37°28' E 025°19'0 0.0
2018-Aug-14 05:28N 37°28' E 025°19'0 0.0
2018-Aug-14 04:58N 37°28' E 025°19'0 0.0
2018-Aug-14 04:28N 37°28' E 025°19'0 0.0
2018-Aug-14 03:58N 37°28' E 025°19'0 0.0
2018-Aug-14 03:30N 37°28' E 025°19'2 4.7
2018-Aug-14 03:00N 37°27' E 025°16'1019.1
2018-Aug-14 02:30N 37°25' E 025°05'1020.8
2018-Aug-14 02:00N 37°19' E 024°54'62712.1
2018-Aug-11 22:14N 43°55' E 014°14'1420.3
2018-Aug-11 21:33N 44°06' E 014°02'220.2
2018-Aug-11 21:27N 44°08' E 014°01'920.2
2018-Aug-11 21:00N 44°15' E 013°54'1520.0
2018-Aug-11 20:15N 44°28' E 013°42'519.8
2018-Aug-11 20:00N 44°32' E 013°39'1019.9
2018-Aug-11 19:30N 44°40' E 013°31'1020.0
2018-Aug-11 19:00N 44°49' E 013°24'1019.9
2018-Aug-11 18:30N 44°57' E 013°17'1019.6
2018-Aug-11 18:00N 45°03' E 013°05'1019.4
2018-Aug-11 17:30N 45°09' E 012°54'1019.3
2018-Aug-11 17:00N 45°15' E 012°44'1019.1
2018-Aug-11 16:30N 45°21' E 012°34'714.0
2018-Aug-11 16:00N 45°25' E 012°26'3 5.7
2018-Aug-11 15:30N 45°25' E 012°22'2 4.6
2018-Aug-11 15:00N 45°26' E 012°18'0 0.3
2018-Aug-11 14:28N 45°26' E 012°19'0 0.0
2018-Aug-11 13:58N 45°26' E 012°19'0 0.0
2018-Aug-11 13:28N 45°26' E 012°19'0 0.0
2018-Aug-11 12:58N 45°26' E 012°19'0 0.0
2018-Aug-11 12:28N 45°26' E 012°19'0 0.0
2018-Aug-11 11:58N 45°26' E 012°19'0 0.0
2018-Aug-11 11:28N 45°26' E 012°19'0 0.0
2018-Aug-11 10:58N 45°26' E 012°19'0 0.0
2018-Aug-11 10:28N 45°26' E 012°19'0 0.0
2018-Aug-11 09:58N 45°26' E 012°19'0 0.0
2018-Aug-11 09:30N 45°26' E 012°19'0 0.0
2018-Aug-11 09:00N 45°26' E 012°19'0 0.0
2018-Aug-11 08:30N 45°26' E 012°19'0 0.0
2018-Aug-11 08:00N 45°26' E 012°19'0 0.0
2018-Aug-11 07:30N 45°26' E 012°19'0 0.0
2018-Aug-11 07:00N 45°26' E 012°19'0 0.0
2018-Aug-11 06:30N 45°26' E 012°19'1 2.2
2018-Aug-11 06:00N 45°26' E 012°20'2 4.6
2018-Aug-11 05:30N 45°26' E 012°23'4 8.1
2018-Aug-11 05:01N 45°24' E 012°28'816.7
2018-Aug-11 04:30N 45°20' E 012°39'1019.5
2018-Aug-11 04:00N 45°16' E 012°51'1019.3
2018-Aug-11 03:30N 45°08' E 012°59'1019.2
2018-Aug-11 02:58N 45°02' E 013°11'918.9
2018-Aug-11 02:30N 44°57' E 013°21'  
Track history (hours):
 
Tides and Currents Weather Stations Pressure Air Temp Water Temp Dewpoint Dewpoint Depression Visibility Wind Speed Wind Dir Waves Ship Positions

MSC Poesia

Last reported at 2018-Aug-21 02:14 UTC. Time now 2018-Aug-21 03:57 UTC.
Position N 37°20' E 024°56'.

Length 293 m; draft 7.8 m.

Type: Ship. MMSI: 355931000.

Date/timePositionNaut miles runAvg speedWind from/ knotsBaromVisibWave heightAir tempDewpointWater temp
2018-Aug-21 02:14N 37°20' E 024°56'  
2018-Aug-18 21:05N 44°14' E 013°54'320.6
2018-Aug-18 20:57N 44°16' E 013°52'1320.4
2018-Aug-18 20:18N 44°27' E 013°42'620.4
2018-Aug-18 20:00N 44°33' E 013°38'1020.4
2018-Aug-18 19:30N 44°41' E 013°30'1020.3
2018-Aug-18 19:00N 44°50' E 013°23'1020.4
2018-Aug-18 18:30N 44°58' E 013°14'1020.3
2018-Aug-18 18:00N 45°04' E 013°02'1020.0
2018-Aug-18 17:30N 45°10' E 012°51'1020.0
2018-Aug-18 17:00N 45°17' E 012°41'1019.3
2018-Aug-18 16:30N 45°23' E 012°30'510.4
2018-Aug-18 16:00N 45°26' E 012°24'3 5.1
2018-Aug-18 15:30N 45°26' E 012°20'1 2.5
2018-Aug-18 14:59N 45°26' E 012°19'0 0.0
2018-Aug-18 14:29N 45°26' E 012°19'0 0.0
2018-Aug-18 14:00N 45°26' E 012°19'0 0.0
2018-Aug-18 13:28N 45°26' E 012°19'0 0.0
2018-Aug-18 12:58N 45°26' E 012°19'0 0.0
2018-Aug-18 12:28N 45°26' E 012°19'0 0.0
2018-Aug-18 11:58N 45°26' E 012°19'0 0.0
2018-Aug-18 11:25N 45°26' E 012°19'0 0.0
2018-Aug-18 10:55N 45°26' E 012°19'0 0.0
2018-Aug-18 10:28N 45°26' E 012°19'0 0.0
2018-Aug-18 09:58N 45°26' E 012°19'0 0.0
2018-Aug-18 09:28N 45°26' E 012°19'0 0.0
2018-Aug-18 09:00N 45°26' E 012°19'0 0.0
2018-Aug-18 08:30N 45°26' E 012°19'0 0.0
2018-Aug-18 08:00N 45°26' E 012°19'0 0.0
2018-Aug-18 07:30N 45°26' E 012°19'0 0.0
2018-Aug-18 07:00N 45°26' E 012°19'0 0.0
2018-Aug-18 06:29N 45°26' E 012°19'1 2.2
2018-Aug-18 06:00N 45°26' E 012°20'2 4.8
2018-Aug-18 05:30N 45°26' E 012°23'4 8.3
2018-Aug-18 05:00N 45°24' E 012°28'815.9
2018-Aug-18 04:31N 45°20' E 012°38'918.5
2018-Aug-18 04:00N 45°15' E 012°49'918.8
2018-Aug-18 03:31N 45°08' E 012°58'918.3
2018-Aug-18 03:00N 45°02' E 013°08'918.4
2018-Aug-18 02:30N 44°58' E 013°19'918.4
2018-Aug-18 02:00N 44°51' E 013°28'918.9
2018-Aug-18 01:30N 44°43' E 013°35'919.0
2018-Aug-18 01:00N 44°35' E 013°42'1018.9
2018-Aug-18 00:30N 44°27' E 013°50'1019.3
2018-Aug-18 00:01N 44°19' E 013°57'1319.3
2018-Aug-17 23:21N 44°08' E 014°07'719.6
2018-Aug-17 23:00N 44°04' E 014°14'2519.6
2018-Aug-17 21:45N 43°47' E 014°39'  
2018-Aug-15 16:17N 37°08' E 023°34'819.8
2018-Aug-15 15:54N 37°16' E 023°36'1219.3
2018-Aug-15 15:18N 37°27' E 023°40'619.9
2018-Aug-15 14:59N 37°33' E 023°41'919.2
2018-Aug-15 14:31N 37°42' E 023°40'1019.8
2018-Aug-15 14:00N 37°52' E 023°36'5 9.3
2018-Aug-15 13:30N 37°56' E 023°37'0 0.1
2018-Aug-15 12:58N 37°56' E 023°37'0 0.0
2018-Aug-15 12:28N 37°56' E 023°37'0 0.0
2018-Aug-15 11:58N 37°56' E 023°37'0 0.0
2018-Aug-15 11:28N 37°56' E 023°37'0 0.0
2018-Aug-15 10:58N 37°56' E 023°37'0 0.0
2018-Aug-15 10:28N 37°56' E 023°37'0 0.0
2018-Aug-15 09:58N 37°56' E 023°37'0 0.0
2018-Aug-15 09:28N 37°56' E 023°37'0 0.0
2018-Aug-15 08:58N 37°56' E 023°37'0 0.0
2018-Aug-15 08:25N 37°56' E 023°37'0 0.0
2018-Aug-15 07:58N 37°56' E 023°37'0 0.0
2018-Aug-15 07:28N 37°56' E 023°37'0 0.0
2018-Aug-15 06:58N 37°56' E 023°37'0 0.0
2018-Aug-15 06:28N 37°56' E 023°37'0 0.0
2018-Aug-15 05:58N 37°56' E 023°37'0 0.0
2018-Aug-15 05:28N 37°56' E 023°37'0 0.0
2018-Aug-15 04:58N 37°56' E 023°37'0 0.0
2018-Aug-15 04:28N 37°56' E 023°37'0 0.0
2018-Aug-15 03:58N 37°56' E 023°37'0 0.1
2018-Aug-15 03:30N 37°56' E 023°37'2 3.0
2018-Aug-15 03:00N 37°55' E 023°36'2 4.7
2018-Aug-15 02:31N 37°53' E 023°38'510.2
2018-Aug-15 02:00N 37°48' E 023°41'510.6
2018-Aug-15 01:30N 37°43' E 023°43'56 8.8
2018-Aug-14 19:10N 37°18' E 024°46'2 9.8
2018-Aug-14 19:00N 37°18' E 024°48'5 9.8
2018-Aug-14 18:30N 37°18' E 024°54'510.1
2018-Aug-14 18:01N 37°19' E 025°00'5 9.1
2018-Aug-14 17:26N 37°21' E 025°06'4 9.7
2018-Aug-14 17:01N 37°25' E 025°08'5 9.5
2018-Aug-14 16:30N 37°28' E 025°13'5 9.4
2018-Aug-14 16:00N 37°28' E 025°19'0 0.0
2018-Aug-14 15:28N 37°28' E 025°19'0 0.0
2018-Aug-14 14:58N 37°28' E 025°19'0 0.0
2018-Aug-14 14:28N 37°28' E 025°19'0 0.0
2018-Aug-14 13:55N 37°28' E 025°19'0 0.0
2018-Aug-14 13:28N 37°28' E 025°19'0 0.0
2018-Aug-14 12:58N 37°28' E 025°19'0 0.0
2018-Aug-14 12:28N 37°28' E 025°19'0 0.0
2018-Aug-14 11:58N 37°28' E 025°19'0 0.0
2018-Aug-14 11:28N 37°28' E 025°19'0 0.0
2018-Aug-14 10:58N 37°28' E 025°19'0 0.0
2018-Aug-14 10:28N 37°28' E 025°19'0 0.0
2018-Aug-14 09:55N 37°28' E 025°19'0 0.0
2018-Aug-14 09:25N 37°28' E 025°19'0 0.0
2018-Aug-14 08:58N 37°28' E 025°19'0 0.0
2018-Aug-14 08:28N 37°28' E 025°19'0 0.0
2018-Aug-14 07:58N 37°28' E 025°19'0 0.0
2018-Aug-14 07:28N 37°28' E 025°19'0 0.0
2018-Aug-14 06:58N 37°28' E 025°19'0 0.0
2018-Aug-14 06:28N 37°28' E 025°19'0 0.0
2018-Aug-14 05:58N 37°28' E 025°19'0 0.0
2018-Aug-14 05:28N 37°28' E 025°19'0 0.0
2018-Aug-14 04:58N 37°28' E 025°19'0 0.0
2018-Aug-14 04:28N 37°28' E 025°19'0 0.0
2018-Aug-14 03:58N 37°28' E 025°19'0 0.0
2018-Aug-14 03:30N 37°28' E 025°19'2 4.7
2018-Aug-14 03:00N 37°27' E 025°16'1019.1
2018-Aug-14 02:30N 37°25' E 025°05'1020.8
2018-Aug-14 02:00N 37°19' E 024°54'62712.1
2018-Aug-11 22:14N 43°55' E 014°14'1420.3
2018-Aug-11 21:33N 44°06' E 014°02'220.2
2018-Aug-11 21:27N 44°08' E 014°01'920.2
2018-Aug-11 21:00N 44°15' E 013°54'1520.0
2018-Aug-11 20:15N 44°28' E 013°42'519.8
2018-Aug-11 20:00N 44°32' E 013°39'1019.9
2018-Aug-11 19:30N 44°40' E 013°31'1020.0
2018-Aug-11 19:00N 44°49' E 013°24'1019.9
2018-Aug-11 18:30N 44°57' E 013°17'1019.6
2018-Aug-11 18:00N 45°03' E 013°05'1019.4
2018-Aug-11 17:30N 45°09' E 012°54'1019.3
2018-Aug-11 17:00N 45°15' E 012°44'1019.1
2018-Aug-11 16:30N 45°21' E 012°34'714.0
2018-Aug-11 16:00N 45°25' E 012°26'3 5.7
2018-Aug-11 15:30N 45°25' E 012°22'2 4.6
2018-Aug-11 15:00N 45°26' E 012°18'0 0.3
2018-Aug-11 14:28N 45°26' E 012°19'0 0.0
2018-Aug-11 13:58N 45°26' E 012°19'0 0.0
2018-Aug-11 13:28N 45°26' E 012°19'0 0.0
2018-Aug-11 12:58N 45°26' E 012°19'0 0.0
2018-Aug-11 12:28N 45°26' E 012°19'0 0.0
2018-Aug-11 11:58N 45°26' E 012°19'0 0.0
2018-Aug-11 11:28N 45°26' E 012°19'0 0.0
2018-Aug-11 10:58N 45°26' E 012°19'0 0.0
2018-Aug-11 10:28N 45°26' E 012°19'0 0.0
2018-Aug-11 09:58N 45°26' E 012°19'0 0.0
2018-Aug-11 09:30N 45°26' E 012°19'0 0.0
2018-Aug-11 09:00N 45°26' E 012°19'0 0.0
2018-Aug-11 08:30N 45°26' E 012°19'0 0.0
2018-Aug-11 08:00N 45°26' E 012°19'0 0.0
2018-Aug-11 07:30N 45°26' E 012°19'0 0.0
2018-Aug-11 07:00N 45°26' E 012°19'0 0.0
2018-Aug-11 06:30N 45°26' E 012°19'1 2.2
2018-Aug-11 06:00N 45°26' E 012°20'2 4.6
2018-Aug-11 05:30N 45°26' E 012°23'4 8.1
2018-Aug-11 05:01N 45°24' E 012°28'816.7
2018-Aug-11 04:30N 45°20' E 012°39'1019.5
2018-Aug-11 04:00N 45°16' E 012°51'1019.3
2018-Aug-11 03:30N 45°08' E 012°59'1019.2
2018-Aug-11 02:58N 45°02' E 013°11'918.9
2018-Aug-11 02:30N 44°57' E 013°21'  

Dump ship's entire track history